Weather History for Rugby, ND

Change the Weather History Date:

Friday, November 30, 2012

  Actual Average Record
Temperature  
Mean Temperature 21 °F -  
Max Temperature 28 °F 27 °F 50 °F (1969)
Min Temperature 14 °F 9 °F -18 °F (1955)
Degree Days  
Heating Degree Days 44    
Moisture  
Dew Point 19 °F    
Average Humidity 93    
Maximum Humidity 100    
Minimum Humidity 79    
Precipitation  
Precipitation 0.00 in - - ()
Sea Level Pressure  
Sea Level Pressure 29.92 in    
Wind  
Wind Speed 12 mph (SE)    
Max Wind Speed 18 mph    
Max Gust Speed 23 mph    
Visibility 5 miles    
Events      
Averages and records for this station are not official NWS values.
T = Trace of Precipitation, MM = Missing Value Source: NWS Daily Summary

Daily Weather History Graph

Daily Weather History Graph

Search for Another Location

Airport:

Trip Planner

Search our weather history database for the weather conditions in past years. The results will help you decide how hot, cold, wet, or windy it might be!

Date:

Astronomy

Nov. 30, 2012 Rise Set
Actual Time 8:09 AM CST 4:47 PM CST
Civil Twilight 7:33 AM CST 5:23 PM CST
Nautical Twilight 6:54 AM CST 6:03 PM CST
Astronomical Twilight 6:17 AM CST 6:40 PM CST
Moon 6:45 PM CST (11/30) 9:42 AM CST (11/30)
Length of Visible Light 9h 49m
Length of Day
8h 38m
Waning Gibbous, 96% of the Moon is Illuminated
Nov 30
Waning Gibbous
Dec 6
Last Quarter
Dec 13
New
Dec 19
First Quarter
Dec 28
Full

Hourly Weather History & Observations

Time (CST) Temp. Windchill Dew Point Humidity Pressure Visibility Wind Dir Wind Speed Gust Speed Precip Events Conditions
12:15 AM 14.0 °F -0.8 °F 8.6 °F 79% 30.10 in 10.0 mi ESE 13.8 mph - N/A   Overcast
12:35 AM 14.0 °F 0.5 °F 8.6 °F 79% 30.12 in 10.0 mi ESE 11.5 mph - N/A   Overcast
12:55 AM 14.0 °F -0.2 °F 10.4 °F 86% 30.11 in 10.0 mi ESE 12.7 mph - N/A   Overcast
1:15 AM 14.0 °F 0.5 °F 10.4 °F 86% 30.10 in 10.0 mi ESE 11.5 mph - N/A   Overcast
1:35 AM 14.0 °F 2.0 °F 10.4 °F 86% 30.11 in 10.0 mi ESE 9.2 mph - N/A   Overcast
1:55 AM 14.0 °F 3.9 °F 10.4 °F 86% 30.11 in 10.0 mi ESE 6.9 mph - N/A   Overcast
2:15 AM 14.0 °F 1.2 °F 10.4 °F 86% 30.10 in 10.0 mi ESE 10.4 mph - N/A   Overcast
2:35 AM 14.0 °F 1.2 °F 10.4 °F 86% 30.10 in 10.0 mi ESE 10.4 mph - N/A   Overcast
2:55 AM 14.0 °F 2.0 °F 10.4 °F 86% 30.09 in 10.0 mi East 9.2 mph - N/A   Overcast
3:15 AM 14.0 °F 2.0 °F 10.4 °F 86% 30.09 in 10.0 mi ESE 9.2 mph - N/A   Overcast
3:35 AM 14.0 °F 0.5 °F 10.4 °F 86% 30.08 in 10.0 mi ESE 11.5 mph - N/A   Overcast
3:55 AM 14.0 °F 1.2 °F 10.4 °F 86% 30.06 in 10.0 mi ESE 10.4 mph - N/A   Overcast
4:15 AM 14.0 °F -1.4 °F 12.2 °F 93% 30.04 in 10.0 mi ESE 15.0 mph - N/A   Overcast
4:35 AM 14.0 °F -0.2 °F 12.2 °F 93% 30.04 in 10.0 mi ESE 12.7 mph - N/A   Overcast
4:55 AM 15.8 °F 2.1 °F 14.0 °F 93% 30.04 in 9.0 mi SE 12.7 mph - N/A   Overcast
5:15 AM 15.8 °F 4.2 °F 14.0 °F 93% 30.05 in 9.0 mi SE 9.2 mph - N/A   Overcast
5:35 AM 15.8 °F 6.1 °F 14.0 °F 93% 30.06 in 5.0 mi SSE 6.9 mph - N/A   Overcast
5:55 AM 15.8 °F 4.2 °F 15.8 °F 100% 30.04 in 2.0 mi SE 9.2 mph - N/A   Overcast
6:15 AM 15.8 °F 3.4 °F 15.8 °F 100% 30.03 in 1.5 mi SE 10.4 mph - N/A   Overcast
6:35 AM 15.8 °F 3.4 °F 15.8 °F 100% 30.02 in 1.2 mi SE 10.4 mph - N/A   Overcast
6:55 AM 15.8 °F 2.7 °F 15.8 °F 100% 30.02 in 1.0 mi SSE 11.5 mph - N/A   Overcast
7:15 AM 17.6 °F 6.4 °F 15.8 °F 93% 30.02 in 1.5 mi SE 9.2 mph - N/A   Overcast
7:35 AM 17.6 °F 6.4 °F 15.8 °F 93% 30.02 in 2.0 mi SSE 9.2 mph - N/A   Overcast
7:55 AM 17.6 °F 8.2 °F 15.8 °F 93% 30.03 in 1.8 mi SSE 6.9 mph - N/A   Overcast
8:15 AM 17.6 °F 6.4 °F 17.6 °F 100% 30.02 in 2.5 mi SSE 9.2 mph - N/A   Overcast
8:35 AM 17.6 °F 5.7 °F 17.6 °F 100% 30.00 in 4.0 mi SSE 10.4 mph - N/A   Overcast
8:55 AM 17.6 °F 5.7 °F 17.6 °F 100% 30.00 in 3.0 mi SSE 10.4 mph 16.1 mph N/A   Overcast
9:15 AM 19.4 °F 6.6 °F 17.6 °F 93% 29.99 in 4.0 mi SSE 12.7 mph - N/A   Overcast
9:35 AM 19.4 °F 7.2 °F 17.6 °F 93% 29.99 in 4.0 mi SSE 11.5 mph 16.1 mph N/A   Overcast
9:55 AM 19.4 °F 6.6 °F 19.4 °F 100% 29.97 in 4.0 mi SSE 12.7 mph - N/A   Overcast
10:15 AM 19.4 °F 7.2 °F 19.4 °F 100% 29.96 in 4.0 mi SSE 11.5 mph - N/A   Overcast
10:35 AM 19.4 °F 7.2 °F 19.4 °F 100% 29.98 in 4.0 mi SSE 11.5 mph - N/A   Overcast
10:55 AM 19.4 °F 7.2 °F 19.4 °F 100% 29.98 in 4.0 mi SSE 11.5 mph 17.3 mph N/A   Overcast
11:15 AM 21.2 °F 10.1 °F 19.4 °F 93% 29.97 in 4.0 mi SSE 10.4 mph - N/A   Overcast
11:35 AM 21.2 °F 8.3 °F 21.2 °F 100% 29.97 in 4.0 mi SSE 13.8 mph - N/A   Overcast
11:55 AM 23.0 °F 10.6 °F 21.2 °F 93% 29.95 in 4.0 mi SSE 13.8 mph 17.3 mph N/A   Overcast
12:15 PM 23.0 °F 10.6 °F 21.2 °F 93% 29.94 in 4.0 mi SSE 13.8 mph 17.3 mph N/A   Overcast
12:35 PM 23.0 °F 10.1 °F 23.0 °F 100% 29.92 in 5.0 mi SSE 15.0 mph 20.7 mph N/A   Overcast
12:55 PM 23.0 °F 8.7 °F 23.0 °F 100% 29.89 in 4.0 mi SSE 18.4 mph 23.0 mph N/A   Overcast
1:15 PM 23.0 °F 9.2 °F 23.0 °F 100% 29.88 in 4.0 mi SSE 17.3 mph 21.9 mph N/A   Overcast
1:35 PM 24.8 °F 12.4 °F 23.0 °F 93% 29.87 in 3.0 mi SSE 15.0 mph 23.0 mph N/A   Overcast
1:55 PM 24.8 °F 11.5 °F 24.8 °F 100% 29.86 in 3.0 mi SSE 17.3 mph 23.0 mph N/A   Overcast
2:15 PM 24.8 °F 13.4 °F 24.8 °F 100% 29.85 in 4.0 mi SSE 12.7 mph 19.6 mph N/A   Overcast
2:35 PM 26.6 °F 15.2 °F 24.8 °F 93% 29.84 in 4.0 mi SSE 13.8 mph 21.9 mph N/A   Overcast
2:55 PM 26.6 °F 16.2 °F 24.8 °F 93% 29.82 in 5.0 mi SE 11.5 mph 18.4 mph N/A   Overcast
3:15 PM 26.6 °F 14.7 °F 24.8 °F 93% 29.82 in 4.0 mi SSE 15.0 mph 21.9 mph N/A   Overcast
3:35 PM 26.6 °F 15.7 °F 24.8 °F 93% 29.81 in 5.0 mi SSE 12.7 mph 19.6 mph N/A   Overcast
3:55 PM 28.4 °F 18.0 °F 24.8 °F 86% 29.80 in 5.0 mi SE 12.7 mph 19.6 mph N/A   Overcast
4:15 PM 26.6 °F 15.2 °F 24.8 °F 93% 29.79 in 5.0 mi SE 13.8 mph - N/A   Scattered Clouds
4:35 PM 26.6 °F 16.8 °F 24.8 °F 93% 29.79 in 5.0 mi SE 10.4 mph - N/A   Clear
4:55 PM 26.6 °F 16.2 °F 24.8 °F 93% 29.79 in 4.0 mi SE 11.5 mph 18.4 mph N/A   Clear
5:15 PM 26.6 °F 17.5 °F 24.8 °F 93% 29.78 in 5.0 mi SE 9.2 mph - N/A   Clear
5:35 PM 26.6 °F 16.2 °F 24.8 °F 93% 29.77 in 5.0 mi SE 11.5 mph - N/A   Clear
6:15 PM 26.6 °F 15.7 °F 24.8 °F 93% 29.76 in 5.0 mi SE 12.7 mph 18.4 mph N/A   Clear
6:35 PM 28.4 °F 17.0 °F 24.8 °F 86% 29.76 in 5.0 mi SE 15.0 mph 20.7 mph N/A   Clear
7:15 PM 26.6 °F 15.2 °F 24.8 °F 93% 29.74 in 5.0 mi SSE 13.8 mph - N/A   Clear
7:35 PM 26.6 °F 14.7 °F 24.8 °F 93% 29.72 in 5.0 mi SSE 15.0 mph 20.7 mph N/A   Clear
7:55 PM 26.6 °F 15.2 °F 24.8 °F 93% 29.72 in 5.0 mi SSE 13.8 mph 20.7 mph N/A   Clear
8:15 PM 26.6 °F 14.7 °F 24.8 °F 93% 29.72 in 5.0 mi SSE 15.0 mph 20.7 mph N/A   Clear
8:35 PM 26.6 °F 15.2 °F 24.8 °F 93% 29.73 in 5.0 mi SSE 13.8 mph 21.9 mph N/A   Clear
9:15 PM 28.4 °F 18.0 °F 26.6 °F 93% 29.74 in 5.0 mi SSE 12.7 mph - N/A   Clear
9:35 PM 28.4 °F 18.5 °F 26.6 °F 93% 29.73 in 5.0 mi SSE 11.5 mph 16.1 mph N/A   Clear
10:15 PM 28.4 °F 18.0 °F 26.6 °F 93% 29.70 in 5.0 mi SSE 12.7 mph - N/A   Clear
10:35 PM 28.4 °F 18.5 °F 26.6 °F 93% 29.69 in 5.0 mi SE 11.5 mph 16.1 mph N/A   Clear
11:15 PM 28.4 °F 19.1 °F 26.6 °F 93% 29.67 in 5.0 mi SE 10.4 mph - N/A   Clear
11:35 PM 28.4 °F 18.5 °F 26.6 °F 93% 29.67 in 5.0 mi SSE 11.5 mph 16.1 mph N/A   Clear
11:55 PM 26.6 °F 14.7 °F 26.6 °F 100% 29.66 in 5.0 mi SSE 15.0 mph - N/A   Clear